sensor_id;sensor_type;location;lat;lon;timestamp;P1;durP1;ratioP1;P2;durP2;ratioP2
56893;SDS011;43392;50.078;13.704;2023-03-23T00:01:46;9.60;;;4.57;;
56893;SDS011;43392;50.078;13.704;2023-03-23T00:04:14;8.30;;;4.57;;
56893;SDS011;43392;50.078;13.704;2023-03-23T00:06:42;9.93;;;5.00;;
56893;SDS011;43392;50.078;13.704;2023-03-23T00:09:10;9.45;;;4.55;;
56893;SDS011;43392;50.078;13.704;2023-03-23T00:11:37;9.88;;;4.70;;
56893;SDS011;43392;50.078;13.704;2023-03-23T00:14:05;8.38;;;4.28;;
56893;SDS011;43392;50.078;13.704;2023-03-23T00:16:38;8.00;;;4.28;;
56893;SDS011;43392;50.078;13.704;2023-03-23T00:19:06;11.48;;;5.03;;
56893;SDS011;43392;50.078;13.704;2023-03-23T00:21:35;9.15;;;4.50;;
56893;SDS011;43392;50.078;13.704;2023-03-23T00:24:06;10.63;;;5.15;;
56893;SDS011;43392;50.078;13.704;2023-03-23T00:29:05;10.00;;;4.68;;
56893;SDS011;43392;50.078;13.704;2023-03-23T00:31:32;9.20;;;4.93;;
56893;SDS011;43392;50.078;13.704;2023-03-23T00:34:00;9.48;;;4.63;;
56893;SDS011;43392;50.078;13.704;2023-03-23T00:36:29;14.32;;;5.88;;
56893;SDS011;43392;50.078;13.704;2023-03-23T00:38:56;9.68;;;5.03;;
56893;SDS011;43392;50.078;13.704;2023-03-23T00:41:26;11.25;;;5.60;;
56893;SDS011;43392;50.078;13.704;2023-03-23T00:43:54;10.88;;;5.05;;
56893;SDS011;43392;50.078;13.704;2023-03-23T00:46:21;13.38;;;5.55;;
56893;SDS011;43392;50.078;13.704;2023-03-23T00:48:48;11.18;;;5.32;;
56893;SDS011;43392;50.078;13.704;2023-03-23T00:51:15;10.45;;;4.85;;
56893;SDS011;43392;50.078;13.704;2023-03-23T00:53:43;9.55;;;4.93;;
56893;SDS011;43392;50.078;13.704;2023-03-23T00:56:09;10.00;;;5.28;;
56893;SDS011;43392;50.078;13.704;2023-03-23T00:58:37;9.40;;;4.97;;
56893;SDS011;43392;50.078;13.704;2023-03-23T01:01:04;13.45;;;5.32;;
56893;SDS011;43392;50.078;13.704;2023-03-23T01:03:32;10.25;;;5.10;;
56893;SDS011;43392;50.078;13.704;2023-03-23T01:06:03;8.40;;;5.00;;
56893;SDS011;43392;50.078;13.704;2023-03-23T01:08:31;10.07;;;5.28;;
56893;SDS011;43392;50.078;13.704;2023-03-23T01:11:01;10.20;;;5.32;;
56893;SDS011;43392;50.078;13.704;2023-03-23T01:13:29;10.02;;;5.50;;
56893;SDS011;43392;50.078;13.704;2023-03-23T01:15:58;10.75;;;5.03;;
56893;SDS011;43392;50.078;13.704;2023-03-23T01:18:24;12.30;;;5.45;;
56893;SDS011;43392;50.078;13.704;2023-03-23T01:20:51;10.07;;;5.45;;
56893;SDS011;43392;50.078;13.704;2023-03-23T01:23:17;11.48;;;5.15;;
56893;SDS011;43392;50.078;13.704;2023-03-23T01:25:44;11.98;;;5.05;;
56893;SDS011;43392;50.078;13.704;2023-03-23T01:28:11;12.85;;;5.30;;
56893;SDS011;43392;50.078;13.704;2023-03-23T01:30:37;10.18;;;5.30;;
56893;SDS011;43392;50.078;13.704;2023-03-23T01:33:06;12.63;;;5.00;;
56893;SDS011;43392;50.078;13.704;2023-03-23T01:35:32;9.05;;;4.90;;
56893;SDS011;43392;50.078;13.704;2023-03-23T01:37:59;13.80;;;5.60;;
56893;SDS011;43392;50.078;13.704;2023-03-23T01:40:26;9.98;;;5.05;;
56893;SDS011;43392;50.078;13.704;2023-03-23T01:42:53;12.05;;;5.10;;
56893;SDS011;43392;50.078;13.704;2023-03-23T01:45:24;9.38;;;5.00;;
56893;SDS011;43392;50.078;13.704;2023-03-23T01:47:59;11.68;;;5.60;;
56893;SDS011;43392;50.078;13.704;2023-03-23T01:50:31;9.27;;;5.03;;
56893;SDS011;43392;50.078;13.704;2023-03-23T01:53:02;8.52;;;4.88;;
56893;SDS011;43392;50.078;13.704;2023-03-23T01:55:33;8.27;;;4.93;;
56893;SDS011;43392;50.078;13.704;2023-03-23T01:58:03;11.88;;;5.00;;
56893;SDS011;43392;50.078;13.704;2023-03-23T02:00:31;9.82;;;4.90;;
56893;SDS011;43392;50.078;13.704;2023-03-23T02:02:58;9.13;;;4.93;;
56893;SDS011;43392;50.078;13.704;2023-03-23T02:05:28;8.90;;;5.03;;
56893;SDS011;43392;50.078;13.704;2023-03-23T02:07:59;10.45;;;5.10;;
56893;SDS011;43392;50.078;13.704;2023-03-23T02:10:29;9.98;;;5.03;;
56893;SDS011;43392;50.078;13.704;2023-03-23T02:12:56;11.65;;;5.10;;
56893;SDS011;43392;50.078;13.704;2023-03-23T02:15:24;9.35;;;5.03;;
56893;SDS011;43392;50.078;13.704;2023-03-23T02:17:55;11.40;;;6.17;;
56893;SDS011;43392;50.078;13.704;2023-03-23T02:26:28;10.52;;;5.25;;
56893;SDS011;43392;50.078;13.704;2023-03-23T02:29:07;11.00;;;5.45;;
56893;SDS011;43392;50.078;13.704;2023-03-23T02:31:47;14.00;;;5.85;;
56893;SDS011;43392;50.078;13.704;2023-03-23T02:34:28;11.05;;;5.43;;
56893;SDS011;43392;50.078;13.704;2023-03-23T02:37:07;10.23;;;5.30;;
56893;SDS011;43392;50.078;13.704;2023-03-23T02:39:39;11.52;;;5.38;;
56893;SDS011;43392;50.078;13.704;2023-03-23T02:42:13;11.98;;;5.10;;
56893;SDS011;43392;50.078;13.704;2023-03-23T02:44:43;9.57;;;5.47;;
56893;SDS011;43392;50.078;13.704;2023-03-23T02:47:13;9.48;;;5.20;;
56893;SDS011;43392;50.078;13.704;2023-03-23T02:49:45;13.90;;;5.70;;
56893;SDS011;43392;50.078;13.704;2023-03-23T02:52:16;9.90;;;5.38;;
56893;SDS011;43392;50.078;13.704;2023-03-23T02:54:46;11.82;;;5.20;;
56893;SDS011;43392;50.078;13.704;2023-03-23T02:57:14;12.85;;;5.90;;
56893;SDS011;43392;50.078;13.704;2023-03-23T02:59:41;11.35;;;5.50;;
56893;SDS011;43392;50.078;13.704;2023-03-23T03:02:08;9.68;;;5.75;;
56893;SDS011;43392;50.078;13.704;2023-03-23T03:04:39;12.50;;;5.90;;
56893;SDS011;43392;50.078;13.704;2023-03-23T03:09:56;11.13;;;5.40;;
56893;SDS011;43392;50.078;13.704;2023-03-23T03:12:30;10.13;;;5.57;;
56893;SDS011;43392;50.078;13.704;2023-03-23T03:15:06;10.13;;;5.38;;
56893;SDS011;43392;50.078;13.704;2023-03-23T03:17:41;10.65;;;5.38;;
56893;SDS011;43392;50.078;13.704;2023-03-23T03:20:12;11.10;;;5.97;;
56893;SDS011;43392;50.078;13.704;2023-03-23T03:22:42;10.55;;;5.57;;
56893;SDS011;43392;50.078;13.704;2023-03-23T03:25:12;12.57;;;5.95;;
56893;SDS011;43392;50.078;13.704;2023-03-23T03:27:41;8.93;;;5.60;;
56893;SDS011;43392;50.078;13.704;2023-03-23T03:30:14;12.85;;;6.22;;
56893;SDS011;43392;50.078;13.704;2023-03-23T03:32:45;10.43;;;5.60;;
56893;SDS011;43392;50.078;13.704;2023-03-23T03:35:16;10.32;;;6.00;;
56893;SDS011;43392;50.078;13.704;2023-03-23T03:37:45;12.10;;;5.60;;
56893;SDS011;43392;50.078;13.704;2023-03-23T03:40:13;10.07;;;5.78;;
56893;SDS011;43392;50.078;13.704;2023-03-23T03:42:42;13.75;;;6.50;;
56893;SDS011;43392;50.078;13.704;2023-03-23T03:45:11;13.40;;;6.25;;
56893;SDS011;43392;50.078;13.704;2023-03-23T03:47:39;11.73;;;6.10;;
56893;SDS011;43392;50.078;13.704;2023-03-23T03:50:06;12.65;;;6.32;;
56893;SDS011;43392;50.078;13.704;2023-03-23T03:52:33;10.95;;;5.45;;
56893;SDS011;43392;50.078;13.704;2023-03-23T03:55:02;13.27;;;5.85;;
56893;SDS011;43392;50.078;13.704;2023-03-23T03:57:29;15.02;;;6.50;;
56893;SDS011;43392;50.078;13.704;2023-03-23T03:59:55;12.82;;;5.95;;
56893;SDS011;43392;50.078;13.704;2023-03-23T04:02:22;10.02;;;5.85;;
56893;SDS011;43392;50.078;13.704;2023-03-23T04:04:49;10.63;;;6.07;;
56893;SDS011;43392;50.078;13.704;2023-03-23T04:07:17;12.75;;;6.43;;
56893;SDS011;43392;50.078;13.704;2023-03-23T04:09:44;12.45;;;7.32;;
56893;SDS011;43392;50.078;13.704;2023-03-23T04:12:13;10.70;;;6.28;;
56893;SDS011;43392;50.078;13.704;2023-03-23T04:14:40;11.90;;;6.43;;
56893;SDS011;43392;50.078;13.704;2023-03-23T04:17:07;12.07;;;6.53;;
56893;SDS011;43392;50.078;13.704;2023-03-23T04:19:35;13.30;;;6.25;;
56893;SDS011;43392;50.078;13.704;2023-03-23T04:22:02;11.25;;;6.28;;
56893;SDS011;43392;50.078;13.704;2023-03-23T04:24:30;11.13;;;6.30;;
56893;SDS011;43392;50.078;13.704;2023-03-23T04:26:58;11.25;;;6.45;;
56893;SDS011;43392;50.078;13.704;2023-03-23T04:29:28;9.57;;;6.00;;
56893;SDS011;43392;50.078;13.704;2023-03-23T04:31:55;10.00;;;5.78;;
56893;SDS011;43392;50.078;13.704;2023-03-23T04:34:22;13.80;;;6.30;;
56893;SDS011;43392;50.078;13.704;2023-03-23T04:36:49;12.13;;;5.72;;
56893;SDS011;43392;50.078;13.704;2023-03-23T04:39:16;10.27;;;5.40;;
56893;SDS011;43392;50.078;13.704;2023-03-23T04:41:43;11.80;;;5.80;;
56893;SDS011;43392;50.078;13.704;2023-03-23T04:44:10;10.43;;;5.60;;
56893;SDS011;43392;50.078;13.704;2023-03-23T04:46:44;9.38;;;5.45;;
56893;SDS011;43392;50.078;13.704;2023-03-23T04:49:14;12.52;;;5.78;;
56893;SDS011;43392;50.078;13.704;2023-03-23T04:51:46;11.27;;;5.55;;
56893;SDS011;43392;50.078;13.704;2023-03-23T04:54:13;10.52;;;5.22;;
56893;SDS011;43392;50.078;13.704;2023-03-23T04:56:40;12.15;;;5.32;;
56893;SDS011;43392;50.078;13.704;2023-03-23T04:59:07;8.90;;;5.00;;
56893;SDS011;43392;50.078;13.704;2023-03-23T05:01:34;9.85;;;5.20;;
56893;SDS011;43392;50.078;13.704;2023-03-23T05:04:02;11.30;;;5.32;;
56893;SDS011;43392;50.078;13.704;2023-03-23T05:06:29;11.25;;;5.05;;
56893;SDS011;43392;50.078;13.704;2023-03-23T05:08:56;9.15;;;5.25;;
56893;SDS011;43392;50.078;13.704;2023-03-23T05:11:22;11.70;;;6.43;;
56893;SDS011;43392;50.078;13.704;2023-03-23T05:13:50;9.13;;;5.32;;
56893;SDS011;43392;50.078;13.704;2023-03-23T05:16:16;9.85;;;5.18;;
56893;SDS011;43392;50.078;13.704;2023-03-23T05:18:43;12.57;;;5.38;;
56893;SDS011;43392;50.078;13.704;2023-03-23T05:21:12;8.73;;;5.15;;
56893;SDS011;43392;50.078;13.704;2023-03-23T05:23:39;10.65;;;5.50;;
56893;SDS011;43392;50.078;13.704;2023-03-23T05:26:06;9.50;;;5.28;;
56893;SDS011;43392;50.078;13.704;2023-03-23T05:28:32;8.85;;;4.85;;
56893;SDS011;43392;50.078;13.704;2023-03-23T05:30:59;11.82;;;5.45;;
56893;SDS011;43392;50.078;13.704;2023-03-23T05:33:26;8.60;;;5.38;;
56893;SDS011;43392;50.078;13.704;2023-03-23T05:35:52;9.50;;;4.80;;
56893;SDS011;43392;50.078;13.704;2023-03-23T05:38:21;9.27;;;4.95;;
56893;SDS011;43392;50.078;13.704;2023-03-23T05:40:47;8.18;;;4.80;;
56893;SDS011;43392;50.078;13.704;2023-03-23T05:43:14;8.60;;;5.00;;
56893;SDS011;43392;50.078;13.704;2023-03-23T05:45:40;11.27;;;4.97;;
56893;SDS011;43392;50.078;13.704;2023-03-23T05:48:07;11.98;;;4.53;;
56893;SDS011;43392;50.078;13.704;2023-03-23T05:50:34;10.20;;;4.88;;
56893;SDS011;43392;50.078;13.704;2023-03-23T05:53:01;8.68;;;4.47;;
56893;SDS011;43392;50.078;13.704;2023-03-23T05:55:30;9.10;;;4.88;;
56893;SDS011;43392;50.078;13.704;2023-03-23T05:57:58;9.60;;;4.80;;
56893;SDS011;43392;50.078;13.704;2023-03-23T06:00:25;10.10;;;4.88;;
56893;SDS011;43392;50.078;13.704;2023-03-23T06:02:55;10.07;;;4.90;;
56893;SDS011;43392;50.078;13.704;2023-03-23T06:05:22;8.68;;;4.10;;
56893;SDS011;43392;50.078;13.704;2023-03-23T06:07:50;7.55;;;4.30;;
56893;SDS011;43392;50.078;13.704;2023-03-23T06:10:17;8.85;;;4.47;;
56893;SDS011;43392;50.078;13.704;2023-03-23T06:12:45;9.48;;;5.03;;
56893;SDS011;43392;50.078;13.704;2023-03-23T06:15:12;9.88;;;4.80;;
56893;SDS011;43392;50.078;13.704;2023-03-23T06:17:39;9.10;;;4.40;;
56893;SDS011;43392;50.078;13.704;2023-03-23T06:20:06;9.05;;;4.28;;
56893;SDS011;43392;50.078;13.704;2023-03-23T06:22:34;9.32;;;4.78;;
56893;SDS011;43392;50.078;13.704;2023-03-23T06:25:03;8.73;;;4.53;;
56893;SDS011;43392;50.078;13.704;2023-03-23T06:27:30;11.55;;;4.72;;
56893;SDS011;43392;50.078;13.704;2023-03-23T06:29:58;9.32;;;4.75;;
56893;SDS011;43392;50.078;13.704;2023-03-23T06:32:25;13.52;;;5.20;;
56893;SDS011;43392;50.078;13.704;2023-03-23T06:37:22;9.05;;;4.65;;
56893;SDS011;43392;50.078;13.704;2023-03-23T06:39:49;10.48;;;4.85;;
56893;SDS011;43392;50.078;13.704;2023-03-23T06:42:16;12.38;;;5.22;;
56893;SDS011;43392;50.078;13.704;2023-03-23T06:44:44;10.23;;;5.22;;
56893;SDS011;43392;50.078;13.704;2023-03-23T06:47:12;9.80;;;5.43;;
56893;SDS011;43392;50.078;13.704;2023-03-23T06:49:38;10.85;;;5.43;;
56893;SDS011;43392;50.078;13.704;2023-03-23T06:52:05;9.48;;;4.90;;
56893;SDS011;43392;50.078;13.704;2023-03-23T06:54:32;8.95;;;4.18;;
56893;SDS011;43392;50.078;13.704;2023-03-23T06:56:58;10.93;;;5.40;;
56893;SDS011;43392;50.078;13.704;2023-03-23T06:59:26;10.43;;;4.72;;
56893;SDS011;43392;50.078;13.704;2023-03-23T07:01:52;8.10;;;4.68;;
56893;SDS011;43392;50.078;13.704;2023-03-23T07:04:20;11.88;;;5.65;;
56893;SDS011;43392;50.078;13.704;2023-03-23T07:06:48;9.82;;;4.32;;
56893;SDS011;43392;50.078;13.704;2023-03-23T07:09:15;9.77;;;4.60;;
56893;SDS011;43392;50.078;13.704;2023-03-23T07:11:41;8.75;;;4.53;;
56893;SDS011;43392;50.078;13.704;2023-03-23T07:14:09;8.13;;;4.35;;
56893;SDS011;43392;50.078;13.704;2023-03-23T07:16:35;8.20;;;4.57;;
56893;SDS011;43392;50.078;13.704;2023-03-23T07:19:02;13.23;;;6.10;;
56893;SDS011;43392;50.078;13.704;2023-03-23T07:21:30;8.80;;;4.97;;
56893;SDS011;43392;50.078;13.704;2023-03-23T07:23:57;7.55;;;4.05;;
56893;SDS011;43392;50.078;13.704;2023-03-23T07:26:23;9.15;;;4.07;;
56893;SDS011;43392;50.078;13.704;2023-03-23T07:28:50;7.53;;;4.40;;
56893;SDS011;43392;50.078;13.704;2023-03-23T07:31:16;7.57;;;3.83;;
56893;SDS011;43392;50.078;13.704;2023-03-23T07:33:43;6.97;;;3.97;;
56893;SDS011;43392;50.078;13.704;2023-03-23T07:36:10;8.23;;;4.43;;
56893;SDS011;43392;50.078;13.704;2023-03-23T07:38:38;7.35;;;3.70;;
56893;SDS011;43392;50.078;13.704;2023-03-23T07:41:05;8.75;;;3.40;;
56893;SDS011;43392;50.078;13.704;2023-03-23T07:43:32;10.32;;;3.78;;
56893;SDS011;43392;50.078;13.704;2023-03-23T07:45:59;8.43;;;3.90;;
56893;SDS011;43392;50.078;13.704;2023-03-23T07:48:25;8.43;;;3.40;;
56893;SDS011;43392;50.078;13.704;2023-03-23T07:50:52;7.15;;;3.72;;
56893;SDS011;43392;50.078;13.704;2023-03-23T07:53:19;5.60;;;2.53;;
56893;SDS011;43392;50.078;13.704;2023-03-23T07:55:47;6.97;;;3.00;;
56893;SDS011;43392;50.078;13.704;2023-03-23T07:58:14;5.97;;;2.85;;
56893;SDS011;43392;50.078;13.704;2023-03-23T08:00:45;6.63;;;2.78;;
56893;SDS011;43392;50.078;13.704;2023-03-23T08:03:13;8.18;;;3.00;;
56893;SDS011;43392;50.078;13.704;2023-03-23T08:05:41;7.90;;;2.88;;
56893;SDS011;43392;50.078;13.704;2023-03-23T08:08:08;5.60;;;2.90;;
56893;SDS011;43392;50.078;13.704;2023-03-23T08:10:35;7.95;;;2.80;;
56893;SDS011;43392;50.078;13.704;2023-03-23T08:13:04;6.15;;;2.97;;
56893;SDS011;43392;50.078;13.704;2023-03-23T08:15:31;7.50;;;3.17;;
56893;SDS011;43392;50.078;13.704;2023-03-23T08:17:58;9.20;;;3.40;;
56893;SDS011;43392;50.078;13.704;2023-03-23T08:20:26;8.40;;;3.60;;
56893;SDS011;43392;50.078;13.704;2023-03-23T08:22:53;9.38;;;3.70;;
56893;SDS011;43392;50.078;13.704;2023-03-23T08:25:21;8.45;;;2.95;;
56893;SDS011;43392;50.078;13.704;2023-03-23T08:27:48;6.18;;;2.75;;
56893;SDS011;43392;50.078;13.704;2023-03-23T08:30:16;6.85;;;2.78;;
56893;SDS011;43392;50.078;13.704;2023-03-23T08:32:45;7.03;;;2.47;;
56893;SDS011;43392;50.078;13.704;2023-03-23T08:35:13;10.13;;;3.08;;
56893;SDS011;43392;50.078;13.704;2023-03-23T08:37:41;9.30;;;3.30;;
56893;SDS011;43392;50.078;13.704;2023-03-23T08:40:09;8.70;;;3.50;;
56893;SDS011;43392;50.078;13.704;2023-03-23T08:42:40;7.03;;;3.50;;
56893;SDS011;43392;50.078;13.704;2023-03-23T08:45:08;6.53;;;2.85;;
56893;SDS011;43392;50.078;13.704;2023-03-23T08:47:39;8.82;;;4.35;;
56893;SDS011;43392;50.078;13.704;2023-03-23T08:50:06;9.13;;;3.90;;
56893;SDS011;43392;50.078;13.704;2023-03-23T08:52:35;10.98;;;5.03;;
56893;SDS011;43392;50.078;13.704;2023-03-23T08:55:02;16.95;;;6.97;;
56893;SDS011;43392;50.078;13.704;2023-03-23T08:57:29;15.80;;;6.43;;
56893;SDS011;43392;50.078;13.704;2023-03-23T08:59:56;20.98;;;8.80;;
56893;SDS011;43392;50.078;13.704;2023-03-23T09:02:25;11.15;;;5.03;;
56893;SDS011;43392;50.078;13.704;2023-03-23T09:04:53;10.85;;;4.93;;
56893;SDS011;43392;50.078;13.704;2023-03-23T09:07:20;13.80;;;6.43;;
56893;SDS011;43392;50.078;13.704;2023-03-23T09:09:46;21.23;;;10.18;;
56893;SDS011;43392;50.078;13.704;2023-03-23T09:12:13;14.65;;;7.03;;
56893;SDS011;43392;50.078;13.704;2023-03-23T09:14:40;15.68;;;7.68;;
56893;SDS011;43392;50.078;13.704;2023-03-23T09:17:06;14.63;;;6.82;;
56893;SDS011;43392;50.078;13.704;2023-03-23T09:19:34;10.48;;;5.05;;
56893;SDS011;43392;50.078;13.704;2023-03-23T09:22:02;13.45;;;6.15;;
56893;SDS011;43392;50.078;13.704;2023-03-23T09:24:29;7.25;;;2.88;;
56893;SDS011;43392;50.078;13.704;2023-03-23T09:26:56;8.82;;;3.97;;
56893;SDS011;43392;50.078;13.704;2023-03-23T09:29:24;8.45;;;3.70;;
56893;SDS011;43392;50.078;13.704;2023-03-23T09:31:51;6.28;;;2.55;;
56893;SDS011;43392;50.078;13.704;2023-03-23T09:34:18;5.70;;;2.30;;
56893;SDS011;43392;50.078;13.704;2023-03-23T09:36:45;7.00;;;2.38;;
56893;SDS011;43392;50.078;13.704;2023-03-23T09:39:14;8.95;;;2.17;;
56893;SDS011;43392;50.078;13.704;2023-03-23T09:41:48;5.80;;;2.50;;
56893;SDS011;43392;50.078;13.704;2023-03-23T09:44:29;6.93;;;2.40;;
56893;SDS011;43392;50.078;13.704;2023-03-23T09:47:04;11.23;;;2.30;;
56893;SDS011;43392;50.078;13.704;2023-03-23T09:49:38;6.50;;;1.83;;
56893;SDS011;43392;50.078;13.704;2023-03-23T09:52:10;4.60;;;1.95;;
56893;SDS011;43392;50.078;13.704;2023-03-23T09:54:41;7.63;;;2.03;;
56893;SDS011;43392;50.078;13.704;2023-03-23T09:57:11;3.47;;;1.50;;
56893;SDS011;43392;50.078;13.704;2023-03-23T09:59:45;4.07;;;1.58;;
56893;SDS011;43392;50.078;13.704;2023-03-23T10:02:18;3.85;;;1.63;;
56893;SDS011;43392;50.078;13.704;2023-03-23T10:04:50;4.75;;;1.83;;
56893;SDS011;43392;50.078;13.704;2023-03-23T10:07:19;5.70;;;1.23;;
56893;SDS011;43392;50.078;13.704;2023-03-23T10:09:50;4.45;;;1.60;;
56893;SDS011;43392;50.078;13.704;2023-03-23T10:12:24;3.95;;;1.10;;
56893;SDS011;43392;50.078;13.704;2023-03-23T10:15:02;5.28;;;1.50;;
56893;SDS011;43392;50.078;13.704;2023-03-23T10:17:39;3.63;;;1.48;;
56893;SDS011;43392;50.078;13.704;2023-03-23T10:23:12;3.30;;;1.42;;
56893;SDS011;43392;50.078;13.704;2023-03-23T10:25:42;2.28;;;1.30;;
56893;SDS011;43392;50.078;13.704;2023-03-23T10:28:15;7.82;;;1.58;;
56893;SDS011;43392;50.078;13.704;2023-03-23T10:33:15;3.90;;;1.50;;
56893;SDS011;43392;50.078;13.704;2023-03-23T10:35:47;6.68;;;2.00;;
56893;SDS011;43392;50.078;13.704;2023-03-23T10:38:19;7.68;;;1.48;;
56893;SDS011;43392;50.078;13.704;2023-03-23T10:40:53;2.53;;;1.27;;
56893;SDS011;43392;50.078;13.704;2023-03-23T10:43:22;2.63;;;1.40;;
56893;SDS011;43392;50.078;13.704;2023-03-23T10:45:51;2.83;;;1.20;;
56893;SDS011;43392;50.078;13.704;2023-03-23T10:48:25;5.13;;;1.38;;
56893;SDS011;43392;50.078;13.704;2023-03-23T10:50:56;3.08;;;1.35;;
56893;SDS011;43392;50.078;13.704;2023-03-23T10:53:28;3.13;;;1.40;;
56893;SDS011;43392;50.078;13.704;2023-03-23T10:56:00;3.50;;;1.50;;
56893;SDS011;43392;50.078;13.704;2023-03-23T10:58:28;4.00;;;1.17;;
56893;SDS011;43392;50.078;13.704;2023-03-23T11:00:57;2.92;;;1.40;;
56893;SDS011;43392;50.078;13.704;2023-03-23T11:03:27;2.60;;;1.52;;
56893;SDS011;43392;50.078;13.704;2023-03-23T11:06:02;4.00;;;2.20;;
56893;SDS011;43392;50.078;13.704;2023-03-23T11:08:32;2.97;;;1.60;;
56893;SDS011;43392;50.078;13.704;2023-03-23T11:13:39;3.97;;;1.80;;
56893;SDS011;43392;50.078;13.704;2023-03-23T11:16:08;3.90;;;1.60;;
56893;SDS011;43392;50.078;13.704;2023-03-23T11:18:36;3.95;;;1.48;;
56893;SDS011;43392;50.078;13.704;2023-03-23T11:21:04;3.53;;;1.70;;
56893;SDS011;43392;50.078;13.704;2023-03-23T11:23:34;2.50;;;1.40;;
56893;SDS011;43392;50.078;13.704;2023-03-23T11:26:08;3.35;;;1.50;;
56893;SDS011;43392;50.078;13.704;2023-03-23T11:28:42;7.88;;;1.70;;
56893;SDS011;43392;50.078;13.704;2023-03-23T11:31:11;4.55;;;1.55;;
56893;SDS011;43392;50.078;13.704;2023-03-23T11:33:46;7.63;;;2.05;;
56893;SDS011;43392;50.078;13.704;2023-03-23T11:36:17;3.83;;;1.42;;
56893;SDS011;43392;50.078;13.704;2023-03-23T11:38:44;4.57;;;1.80;;
56893;SDS011;43392;50.078;13.704;2023-03-23T11:41:17;5.40;;;2.15;;
56893;SDS011;43392;50.078;13.704;2023-03-23T11:43:45;5.47;;;2.20;;
56893;SDS011;43392;50.078;13.704;2023-03-23T11:46:17;8.82;;;2.20;;
56893;SDS011;43392;50.078;13.704;2023-03-23T11:48:51;5.65;;;2.03;;
56893;SDS011;43392;50.078;13.704;2023-03-23T11:51:24;5.32;;;2.03;;
56893;SDS011;43392;50.078;13.704;2023-03-23T11:53:57;3.10;;;1.45;;
56893;SDS011;43392;50.078;13.704;2023-03-23T11:56:31;4.05;;;1.77;;
56893;SDS011;43392;50.078;13.704;2023-03-23T11:59:01;5.53;;;2.15;;
56893;SDS011;43392;50.078;13.704;2023-03-23T12:01:37;7.75;;;2.35;;
56893;SDS011;43392;50.078;13.704;2023-03-23T12:04:17;9.13;;;2.22;;
56893;SDS011;43392;50.078;13.704;2023-03-23T12:06:54;4.13;;;1.63;;
56893;SDS011;43392;50.078;13.704;2023-03-23T12:09:33;6.05;;;1.70;;
56893;SDS011;43392;50.078;13.704;2023-03-23T12:12:10;5.00;;;1.83;;
56893;SDS011;43392;50.078;13.704;2023-03-23T12:14:44;2.38;;;1.40;;
56893;SDS011;43392;50.078;13.704;2023-03-23T12:17:20;5.95;;;1.98;;
56893;SDS011;43392;50.078;13.704;2023-03-23T12:20:03;12.05;;;3.80;;
56893;SDS011;43392;50.078;13.704;2023-03-23T12:22:44;3.55;;;1.73;;
56893;SDS011;43392;50.078;13.704;2023-03-23T12:25:40;7.10;;;2.08;;
56893;SDS011;43392;50.078;13.704;2023-03-23T12:28:18;5.00;;;1.92;;
56893;SDS011;43392;50.078;13.704;2023-03-23T12:30:55;3.43;;;1.50;;
56893;SDS011;43392;50.078;13.704;2023-03-23T12:33:28;6.88;;;2.10;;
56893;SDS011;43392;50.078;13.704;2023-03-23T12:36:11;4.30;;;1.85;;
56893;SDS011;43392;50.078;13.704;2023-03-23T12:38:51;10.93;;;2.42;;
56893;SDS011;43392;50.078;13.704;2023-03-23T12:41:39;3.22;;;1.63;;
56893;SDS011;43392;50.078;13.704;2023-03-23T12:44:14;3.60;;;1.70;;
56893;SDS011;43392;50.078;13.704;2023-03-23T12:46:52;5.53;;;1.85;;
56893;SDS011;43392;50.078;13.704;2023-03-23T12:49:30;6.70;;;1.70;;
56893;SDS011;43392;50.078;13.704;2023-03-23T12:52:03;6.45;;;2.50;;
56893;SDS011;43392;50.078;13.704;2023-03-23T12:54:39;10.05;;;4.30;;
56893;SDS011;43392;50.078;13.704;2023-03-23T12:57:14;9.70;;;3.03;;
56893;SDS011;43392;50.078;13.704;2023-03-23T12:59:50;8.77;;;4.18;;
56893;SDS011;43392;50.078;13.704;2023-03-23T13:02:21;13.50;;;5.88;;
56893;SDS011;43392;50.078;13.704;2023-03-23T13:04:52;9.60;;;3.63;;
56893;SDS011;43392;50.078;13.704;2023-03-23T13:07:28;10.73;;;4.97;;
56893;SDS011;43392;50.078;13.704;2023-03-23T13:10:00;12.85;;;7.07;;
56893;SDS011;43392;50.078;13.704;2023-03-23T13:12:31;6.18;;;3.35;;
56893;SDS011;43392;50.078;13.704;2023-03-23T13:15:03;9.02;;;4.75;;
56893;SDS011;43392;50.078;13.704;2023-03-23T13:17:46;21.48;;;10.27;;
56893;SDS011;43392;50.078;13.704;2023-03-23T13:20:37;13.02;;;7.53;;
56893;SDS011;43392;50.078;13.704;2023-03-23T13:23:13;7.43;;;2.45;;
56893;SDS011;43392;50.078;13.704;2023-03-23T13:25:46;7.07;;;2.03;;
56893;SDS011;43392;50.078;13.704;2023-03-23T13:28:16;8.68;;;3.28;;
56893;SDS011;43392;50.078;13.704;2023-03-23T13:30:54;5.05;;;2.20;;
56893;SDS011;43392;50.078;13.704;2023-03-23T13:33:22;6.43;;;2.08;;
56893;SDS011;43392;50.078;13.704;2023-03-23T13:35:49;4.85;;;2.03;;
56893;SDS011;43392;50.078;13.704;2023-03-23T13:38:19;5.07;;;2.10;;
56893;SDS011;43392;50.078;13.704;2023-03-23T13:40:49;4.47;;;2.60;;
56893;SDS011;43392;50.078;13.704;2023-03-23T13:43:24;5.32;;;2.20;;
56893;SDS011;43392;50.078;13.704;2023-03-23T13:45:54;5.07;;;2.15;;
56893;SDS011;43392;50.078;13.704;2023-03-23T13:48:39;4.55;;;2.10;;
56893;SDS011;43392;50.078;13.704;2023-03-23T13:51:23;4.13;;;1.70;;
56893;SDS011;43392;50.078;13.704;2023-03-23T13:54:03;7.90;;;2.65;;
56893;SDS011;43392;50.078;13.704;2023-03-23T13:56:35;4.93;;;2.30;;
56893;SDS011;43392;50.078;13.704;2023-03-23T13:59:06;5.40;;;2.38;;
56893;SDS011;43392;50.078;13.704;2023-03-23T14:01:36;9.38;;;2.90;;
56893;SDS011;43392;50.078;13.704;2023-03-23T14:04:07;7.85;;;2.25;;
56893;SDS011;43392;50.078;13.704;2023-03-23T14:06:37;7.88;;;3.40;;
56893;SDS011;43392;50.078;13.704;2023-03-23T14:09:04;5.38;;;2.20;;
56893;SDS011;43392;50.078;13.704;2023-03-23T14:11:34;4.93;;;2.10;;
56893;SDS011;43392;50.078;13.704;2023-03-23T14:14:14;7.88;;;2.80;;
56893;SDS011;43392;50.078;13.704;2023-03-23T14:16:49;7.03;;;2.70;;
56893;SDS011;43392;50.078;13.704;2023-03-23T14:19:18;6.03;;;2.83;;
56893;SDS011;43392;50.078;13.704;2023-03-23T14:24:17;4.43;;;2.08;;
56893;SDS011;43392;50.078;13.704;2023-03-23T14:26:48;6.13;;;2.17;;
56893;SDS011;43392;50.078;13.704;2023-03-23T14:29:17;4.03;;;2.15;;
56893;SDS011;43392;50.078;13.704;2023-03-23T14:31:45;5.00;;;1.90;;
56893;SDS011;43392;50.078;13.704;2023-03-23T14:34:19;5.57;;;2.05;;
56893;SDS011;43392;50.078;13.704;2023-03-23T14:36:47;7.05;;;3.03;;
56893;SDS011;43392;50.078;13.704;2023-03-23T14:39:17;5.15;;;2.50;;
56893;SDS011;43392;50.078;13.704;2023-03-23T14:41:47;4.47;;;2.13;;
56893;SDS011;43392;50.078;13.704;2023-03-23T14:44:15;5.68;;;2.20;;
56893;SDS011;43392;50.078;13.704;2023-03-23T14:46:44;7.43;;;2.50;;
56893;SDS011;43392;50.078;13.704;2023-03-23T14:49:13;6.32;;;1.83;;
56893;SDS011;43392;50.078;13.704;2023-03-23T14:51:49;3.78;;;1.88;;
56893;SDS011;43392;50.078;13.704;2023-03-23T14:54:20;10.88;;;4.75;;
56893;SDS011;43392;50.078;13.704;2023-03-23T14:56:49;4.75;;;1.95;;
56893;SDS011;43392;50.078;13.704;2023-03-23T14:59:16;4.35;;;1.65;;
56893;SDS011;43392;50.078;13.704;2023-03-23T15:01:44;3.40;;;1.65;;
56893;SDS011;43392;50.078;13.704;2023-03-23T15:04:14;10.40;;;5.13;;
56893;SDS011;43392;50.078;13.704;2023-03-23T15:06:45;3.35;;;1.60;;
56893;SDS011;43392;50.078;13.704;2023-03-23T15:09:15;4.55;;;1.75;;
56893;SDS011;43392;50.078;13.704;2023-03-23T15:11:50;4.07;;;1.60;;